Hatsu Envoy — VSQL9 — position and weather

sailwx.info

Track history (hours):
 
Tides and Currents Weather Stations Pressure Air Temp Water Temp Dewpoint Dewpoint Depression Visibility Wind Speed Wind Dir Waves Ship Positions

Hatsu Envoy

Last reported at 2017-Dec-16 01:11 UTC. Time now 2017-Dec-16 06:58 UTC.
Position N 33°44' W 130°05'.

Type: Ship (hazmat cat D). MMSI: 235414000.

Date/timePositionNaut miles runAvg speedWind from/ knotsBaromVisibWave heightAir tempDewpointWater temp
2017-Dec-16 01:11N 33°44' W 130°05'820.4
2017-Dec-16 00:47N 33°44' W 130°15'620.4
2017-Dec-16 00:30N 33°44' W 130°22'1120.2
2017-Dec-15 23:58N 33°44' W 130°35'3320.6
2017-Dec-15 22:21N 33°44' W 131°15'3120.4
2017-Dec-15 20:50N 33°43' W 131°52'720.1
2017-Dec-15 20:30N 33°43' W 131°60'1020.4
2017-Dec-15 20:00N 33°42' W 132°12'2220.4
2017-Dec-15 18:57N 33°42' W 132°38'919.6
2017-Dec-15 18:30N 33°42' W 132°49'1019.5
2017-Dec-15 18:00N 33°42' W 133°00'1520.1
2017-Dec-15 17:15N 33°41' W 133°19'1320.1
2017-Dec-15 16:37N 33°41' W 133°34'220.3
2017-Dec-15 16:30N 33°41' W 133°37'1020.0
2017-Dec-15 16:00N 33°40' W 133°49'1020.6
2017-Dec-15 15:30N 33°40' W 134°01'1020.6
2017-Dec-15 15:00N 33°39' W 134°13'1220.5
2017-Dec-15 14:26N 33°39' W 134°27'920.3
2017-Dec-15 14:00N 33°38' W 134°38'1220.5
2017-Dec-15 13:24N 33°38' W 134°53'820.5
2017-Dec-15 13:00N 33°37' W 135°02'1720.0
2017-Dec-15 12:11N 33°37' W 135°22'419.7
2017-Dec-15 11:59N 33°36' W 135°27'1420.3
2017-Dec-15 11:18N 33°36' W 135°43'720.5
2017-Dec-15 10:58N 33°35' W 135°52'920.2
2017-Dec-15 10:30N 33°35' W 136°03'1020.1
2017-Dec-15 10:00N 33°34' W 136°15'1620.3
2017-Dec-15 09:13N 33°33' W 136°34'2320.3
2017-Dec-15 08:05N 33°31' W 137°01'219.9
2017-Dec-15 08:00N 33°31' W 137°03'1020.3
2017-Dec-15 07:30N 33°31' W 137°15'1020.7
2017-Dec-15 07:00N 33°30' W 137°28'1020.5
2017-Dec-15 06:30N 33°30' W 137°40'  
Track history (hours):
 
Tides and Currents Weather Stations Pressure Air Temp Water Temp Dewpoint Dewpoint Depression Visibility Wind Speed Wind Dir Waves Ship Positions

Hatsu Envoy

Last reported at 2017-Dec-16 01:11 UTC. Time now 2017-Dec-16 06:58 UTC.
Position N 33°44' W 130°05'.

Type: Ship (hazmat cat D). MMSI: 235414000.

Date/timePositionNaut miles runAvg speedWind from/ knotsBaromVisibWave heightAir tempDewpointWater temp
2017-Dec-16 01:11N 33°44' W 130°05'820.4
2017-Dec-16 00:47N 33°44' W 130°15'620.4
2017-Dec-16 00:30N 33°44' W 130°22'1120.2
2017-Dec-15 23:58N 33°44' W 130°35'3320.6
2017-Dec-15 22:21N 33°44' W 131°15'3120.4
2017-Dec-15 20:50N 33°43' W 131°52'720.1
2017-Dec-15 20:30N 33°43' W 131°60'1020.4
2017-Dec-15 20:00N 33°42' W 132°12'2220.4
2017-Dec-15 18:57N 33°42' W 132°38'919.6
2017-Dec-15 18:30N 33°42' W 132°49'1019.5
2017-Dec-15 18:00N 33°42' W 133°00'1520.1
2017-Dec-15 17:15N 33°41' W 133°19'1320.1
2017-Dec-15 16:37N 33°41' W 133°34'220.3
2017-Dec-15 16:30N 33°41' W 133°37'1020.0
2017-Dec-15 16:00N 33°40' W 133°49'1020.6
2017-Dec-15 15:30N 33°40' W 134°01'1020.6
2017-Dec-15 15:00N 33°39' W 134°13'1220.5
2017-Dec-15 14:26N 33°39' W 134°27'920.3
2017-Dec-15 14:00N 33°38' W 134°38'1220.5
2017-Dec-15 13:24N 33°38' W 134°53'820.5
2017-Dec-15 13:00N 33°37' W 135°02'1720.0
2017-Dec-15 12:11N 33°37' W 135°22'419.7
2017-Dec-15 11:59N 33°36' W 135°27'1420.3
2017-Dec-15 11:18N 33°36' W 135°43'720.5
2017-Dec-15 10:58N 33°35' W 135°52'920.2
2017-Dec-15 10:30N 33°35' W 136°03'1020.1
2017-Dec-15 10:00N 33°34' W 136°15'1620.3
2017-Dec-15 09:13N 33°33' W 136°34'2320.3
2017-Dec-15 08:05N 33°31' W 137°01'219.9
2017-Dec-15 08:00N 33°31' W 137°03'1020.3
2017-Dec-15 07:30N 33°31' W 137°15'1020.7
2017-Dec-15 07:00N 33°30' W 137°28'1020.5
2017-Dec-15 06:30N 33°30' W 137°40'  

Dump ship's entire track history